Paul Smiths, New York
Current Conditions -  °F | °C
As of 8:51 AM on Saturday 22 Nov 2014 (Local Time) from KSLK Reporting Station
Clear Clear  
Wind Chill:   Ceiling: Unl
Heat Index: 22°   Visibility: 10mi
Dew Point: 13°   Wind: 14mph
Humidity: 68%   Direction: 200°SSW
Pressure: 30.09"   Gusts: NA
Location:  44.44°N, 74.25°W
Report Text: KSLK 221351Z AUTO 20012KT 10SM CLR M06/M11 A3009 RMK AO2 SLP220 T10561106 $
Loading
Personal Weather Stations






























Interactive Weather Map New forecast layout! Learn more

10-Day Weather Forecast

Advertisements
Track Severe Weather on mobile